createdAt,value
2024-02-05T00:00:18.168Z,4.81
2024-02-05T00:01:24.741Z,4.47
2024-02-05T00:02:27.126Z,4.56
2024-02-05T00:03:29.301Z,4.94
2024-02-05T00:04:31.224Z,4.84
2024-02-05T00:05:33.405Z,4.62
2024-02-05T00:06:35.704Z,4.96
2024-02-05T00:07:38.226Z,5.09
2024-02-05T00:08:40.455Z,5.26
2024-02-05T00:09:42.936Z,4.95
2024-02-05T00:10:45.027Z,4.96
2024-02-05T00:11:47.109Z,5.17
2024-02-05T00:12:49.308Z,5.09
2024-02-05T00:13:51.572Z,5.31
2024-02-05T00:14:56.122Z,5.26
2024-02-05T00:15:59.031Z,5.27
2024-02-05T00:17:01.614Z,5.12
2024-02-05T00:18:07.178Z,4.85
2024-02-05T00:19:09.246Z,5.07
2024-02-05T00:20:13.525Z,5.16
2024-02-05T00:21:15.523Z,5.10
2024-02-05T00:22:17.536Z,4.98
2024-02-05T00:23:24.285Z,5.31
2024-02-05T00:24:26.229Z,4.95
2024-02-05T00:25:29.949Z,5.24
2024-02-05T00:26:32.001Z,5.00
2024-02-05T00:27:35.478Z,5.24
2024-02-05T00:28:37.716Z,5.39
2024-02-05T00:29:41.112Z,5.35
2024-02-05T00:30:45.355Z,5.32
2024-02-05T00:31:52.414Z,5.29
2024-02-05T00:32:54.480Z,5.46
2024-02-05T00:33:57.928Z,5.24
2024-02-05T00:35:00.303Z,5.04
2024-02-05T00:36:05.057Z,5.04
2024-02-05T00:37:10.479Z,5.33
2024-02-05T00:38:14.732Z,5.33
2024-02-05T00:39:17.124Z,5.28
2024-02-05T00:40:19.803Z,5.48
2024-02-05T00:41:22.434Z,5.41
2024-02-05T00:42:26.353Z,5.15
2024-02-05T00:43:30.227Z,5.39
2024-02-05T00:44:32.818Z,5.15
2024-02-05T00:45:38.070Z,5.48
2024-02-05T00:46:41.668Z,5.15
2024-02-05T00:47:45.464Z,5.32
2024-02-05T00:48:48.300Z,5.24
2024-02-05T00:49:50.475Z,5.16
2024-02-05T00:50:53.893Z,5.59
2024-02-05T00:51:55.917Z,5.87
2024-02-05T00:52:57.997Z,5.40
2024-02-05T00:54:00.247Z,5.05
2024-02-05T00:55:06.122Z,5.01
2024-02-05T00:56:10.541Z,5.43
2024-02-05T00:57:12.618Z,5.06
2024-02-05T00:58:15.420Z,5.06
2024-02-05T00:59:18.323Z,5.07
2024-02-05T01:00:21.839Z,5.25
2024-02-05T01:01:26.589Z,5.23
2024-02-05T01:02:30.862Z,4.96
2024-02-05T01:03:33.218Z,4.76
2024-02-05T01:04:37.222Z,4.93
2024-02-05T01:05:39.989Z,5.09
2024-02-05T01:06:42.578Z,5.06
2024-02-05T01:07:44.768Z,5.25
2024-02-05T01:08:46.780Z,5.45
2024-02-05T01:09:48.838Z,5.47
2024-02-05T01:10:53.113Z,4.75
2024-02-05T01:11:56.474Z,5.14
2024-02-05T01:12:58.470Z,4.84
2024-02-05T01:14:02.199Z,4.99
2024-02-05T01:15:06.036Z,4.99
2024-02-05T01:16:08.422Z,5.41
2024-02-05T01:17:11.620Z,4.72
2024-02-05T01:18:15.499Z,5.00
2024-02-05T01:19:17.762Z,5.16
2024-02-05T01:20:19.853Z,5.05
2024-02-05T01:21:23.883Z,4.94
2024-02-05T01:22:27.880Z,4.91
2024-02-05T01:23:31.066Z,4.83
2024-02-05T01:24:33.050Z,4.78
2024-02-05T01:25:36.449Z,5.15
2024-02-05T01:26:38.590Z,4.81
2024-02-05T01:27:40.542Z,5.20
2024-02-05T01:28:42.634Z,4.96
2024-02-05T01:29:45.522Z,5.08
2024-02-05T01:30:47.816Z,5.16
2024-02-05T01:31:52.077Z,5.25
2024-02-05T01:32:54.563Z,5.15
2024-02-05T01:33:56.696Z,4.91
2024-02-05T01:34:58.822Z,4.89
2024-02-05T01:36:02.322Z,4.76
2024-02-05T01:37:06.284Z,5.16
2024-02-05T01:38:11.372Z,5.28
2024-02-05T01:39:13.460Z,5.25
2024-02-05T01:40:15.731Z,4.86
2024-02-05T01:41:18.415Z,5.20
2024-02-05T01:42:20.445Z,5.07
2024-02-05T01:43:22.903Z,5.18
2024-02-05T01:44:24.882Z,4.99
2024-02-05T01:45:31.063Z,5.05
2024-02-05T01:46:36.189Z,5.28
2024-02-05T01:47:39.839Z,5.28
2024-02-05T01:48:44.916Z,5.34
2024-02-05T01:49:49.461Z,5.53
2024-02-05T01:50:54.602Z,5.29
2024-02-05T01:52:00.389Z,5.39
2024-02-05T01:53:05.446Z,5.57
2024-02-05T01:54:12.420Z,5.57
2024-02-05T01:55:16.977Z,5.39
2024-02-05T01:56:25.969Z,5.59
2024-02-05T01:57:28.210Z,5.72
2024-02-05T01:58:31.743Z,5.55
2024-02-05T01:59:33.857Z,5.97
2024-02-05T02:00:40.113Z,5.61
2024-02-05T02:01:44.197Z,5.53
2024-02-05T02:02:46.797Z,5.51
2024-02-05T02:03:51.537Z,5.36
2024-02-05T02:05:01.383Z,5.58
2024-02-05T02:06:06.714Z,5.61
2024-02-05T02:07:09.802Z,5.98
2024-02-05T02:08:14.647Z,5.94
2024-02-05T02:09:18.720Z,5.85
2024-02-05T02:10:22.535Z,5.62
2024-02-05T02:11:27.164Z,5.57
2024-02-05T02:12:29.140Z,5.68
2024-02-05T02:13:32.730Z,5.62
2024-02-05T02:14:34.740Z,5.95
2024-02-05T02:15:36.677Z,6.17
2024-02-05T02:16:41.136Z,6.28
2024-02-05T02:17:47.496Z,6.06
2024-02-05T02:18:51.753Z,6.27
2024-02-05T02:19:56.396Z,5.92
2024-02-05T02:20:59.575Z,5.86
2024-02-05T02:22:13.482Z,6.09
2024-02-05T02:23:30.097Z,6.09
2024-02-05T02:24:34.818Z,5.93
2024-02-05T02:25:40.326Z,5.80
2024-02-05T02:26:42.491Z,5.95
2024-02-05T02:27:45.827Z,5.83
2024-02-05T02:28:47.817Z,5.97
2024-02-05T02:29:51.763Z,5.94
2024-02-05T02:30:54.935Z,5.94
2024-02-05T02:32:14.175Z,5.94
2024-02-05T02:33:32.564Z,6.08
2024-02-05T02:34:38.405Z,5.99
2024-02-05T02:36:04.527Z,6.13
2024-02-05T02:37:10.934Z,6.32
2024-02-05T02:38:19.738Z,6.30
2024-02-05T02:39:28.630Z,6.42
2024-02-05T02:40:33.466Z,6.13
2024-02-05T02:41:38.876Z,5.93
2024-02-05T02:42:45.410Z,5.90
2024-02-05T02:43:58.390Z,6.37
2024-02-05T02:45:02.365Z,6.47
2024-02-05T02:46:06.445Z,6.37
2024-02-05T02:47:10.041Z,5.85
2024-02-05T02:48:12.087Z,6.14
2024-02-05T02:49:14.238Z,5.93
2024-02-05T02:50:17.453Z,5.96
2024-02-05T02:51:21.644Z,6.17
2024-02-05T02:52:23.769Z,6.30
2024-02-05T02:53:27.109Z,6.01
2024-02-05T02:54:31.271Z,6.31
2024-02-05T02:55:35.093Z,5.88
2024-02-05T02:56:38.492Z,5.97
2024-02-05T02:57:41.449Z,6.19
2024-02-05T02:58:43.503Z,6.27
2024-02-05T02:59:45.390Z,5.66
2024-02-05T03:00:49.533Z,6.16
2024-02-05T03:01:52.031Z,6.13
2024-02-05T03:02:55.291Z,6.13
2024-02-05T03:03:57.273Z,6.15
2024-02-05T03:04:59.361Z,6.28
2024-02-05T03:06:01.574Z,6.20
2024-02-05T03:08:09.936Z,6.38
2024-02-05T03:09:12.516Z,6.25
2024-02-05T03:10:15.697Z,5.73
2024-02-05T03:11:18.472Z,6.11
2024-02-05T03:12:20.516Z,5.93
2024-02-05T03:13:22.437Z,5.98
2024-02-05T03:14:24.525Z,6.12
2024-02-05T03:15:27.657Z,5.77
2024-02-05T03:16:29.790Z,5.89
2024-02-05T03:17:31.705Z,5.65
2024-02-05T03:18:33.737Z,5.74
2024-02-05T03:19:36.014Z,5.74
2024-02-05T03:20:41.158Z,5.55
2024-02-05T03:21:43.717Z,4.98
2024-02-05T03:22:56.097Z,5.35
2024-02-05T03:23:49.633Z,5.35
2024-02-05T03:24:51.798Z,5.38
2024-02-05T03:25:53.853Z,5.53
2024-02-05T03:26:57.042Z,5.25
2024-02-05T03:28:02.105Z,5.25
2024-02-05T03:29:04.131Z,5.41
2024-02-05T03:30:10.098Z,5.35
2024-02-05T03:31:12.423Z,5.44
2024-02-05T03:32:14.489Z,5.36
2024-02-05T03:33:18.595Z,5.66
2024-02-05T03:34:22.961Z,5.34
2024-02-05T03:35:27.258Z,5.45
2024-02-05T03:36:29.391Z,5.10
2024-02-05T03:37:31.287Z,5.10
2024-02-05T03:38:33.634Z,4.99
2024-02-05T03:39:37.165Z,5.30
2024-02-05T03:40:39.311Z,5.23
2024-02-05T03:41:41.350Z,5.06
2024-02-05T03:42:43.495Z,5.13
2024-02-05T03:43:49.167Z,5.06
2024-02-05T03:44:51.095Z,5.23
2024-02-05T03:45:53.175Z,5.32
2024-02-05T03:46:55.390Z,5.20
2024-02-05T03:47:57.322Z,5.31
2024-02-05T03:48:59.900Z,4.89
2024-02-05T03:50:03.259Z,5.07
2024-02-05T03:51:05.469Z,4.77
2024-02-05T03:52:07.432Z,5.01
2024-02-05T03:53:10.257Z,4.98
2024-02-05T03:54:13.120Z,5.11
2024-02-05T03:55:17.119Z,4.97
2024-02-05T03:56:19.668Z,5.01
2024-02-05T03:57:22.393Z,4.94
2024-02-05T03:58:24.523Z,5.15
2024-02-05T03:59:27.429Z,5.07
2024-02-05T04:00:31.174Z,5.20
2024-02-05T04:01:35.839Z,5.13
2024-02-05T04:02:41.192Z,5.07
2024-02-05T04:03:43.360Z,5.19
2024-02-05T04:04:45.455Z,5.34
2024-02-05T04:05:47.527Z,5.08
2024-02-05T04:06:49.729Z,5.18
2024-02-05T04:07:51.818Z,5.05
2024-02-05T04:08:54.883Z,4.88
2024-02-05T04:09:57.124Z,4.69
2024-02-05T04:11:00.691Z,4.59
2024-02-05T04:12:05.964Z,4.77
2024-02-05T04:13:08.105Z,4.68
2024-02-05T04:14:10.130Z,4.19
2024-02-05T04:15:13.013Z,4.38
2024-02-05T04:16:15.337Z,4.45
2024-02-05T04:17:17.792Z,4.36
2024-02-05T04:18:21.222Z,4.57
2024-02-05T04:19:23.341Z,4.71
2024-02-05T04:20:25.471Z,4.61
2024-02-05T04:21:28.932Z,4.67
2024-02-05T04:22:31.618Z,4.76
2024-02-05T04:23:33.528Z,4.74
2024-02-05T04:24:35.425Z,4.80
2024-02-05T04:25:38.143Z,4.67
2024-02-05T04:26:40.329Z,4.77
2024-02-05T04:27:42.257Z,4.47
2024-02-05T04:28:44.224Z,4.78
2024-02-05T04:29:49.068Z,4.66
2024-02-05T04:30:51.667Z,4.80
2024-02-05T04:31:54.699Z,4.55
2024-02-05T04:32:57.123Z,4.42
2024-02-05T04:34:02.399Z,4.25
2024-02-05T04:35:05.793Z,4.17
2024-02-05T04:36:11.516Z,4.27
2024-02-05T04:37:13.529Z,4.04
2024-02-05T04:38:15.687Z,4.37
2024-02-05T04:39:17.599Z,4.51
2024-02-05T04:40:21.709Z,4.64
2024-02-05T04:41:24.092Z,4.70
2024-02-05T04:42:27.282Z,4.51
2024-02-05T04:43:29.960Z,4.34
2024-02-05T04:44:31.869Z,4.46
2024-02-05T04:45:34.914Z,4.59
2024-02-05T04:46:36.954Z,4.50
2024-02-05T04:47:39.052Z,4.72
2024-02-05T04:48:41.624Z,4.34
2024-02-05T04:49:44.700Z,4.30
2024-02-05T04:50:47.020Z,4.48
2024-02-05T04:51:49.540Z,4.65
2024-02-05T04:52:52.708Z,4.53
2024-02-05T04:53:58.457Z,4.69
2024-02-05T04:55:00.671Z,4.31
2024-02-05T04:56:03.402Z,4.60
2024-02-05T04:57:06.853Z,4.51
2024-02-05T04:58:09.818Z,4.59
2024-02-05T04:59:13.140Z,4.70
2024-02-05T05:00:18.174Z,4.85
2024-02-05T05:01:20.416Z,4.84
2024-02-05T05:02:22.447Z,4.80
2024-02-05T05:03:24.499Z,4.84
2024-02-05T05:04:27.411Z,4.24
2024-02-05T05:05:31.374Z,4.15
2024-02-05T05:06:33.798Z,4.62
2024-02-05T05:07:37.946Z,4.38
2024-02-05T05:08:40.135Z,4.67
2024-02-05T05:09:42.067Z,4.35
2024-02-05T05:10:44.503Z,4.60
2024-02-05T05:11:46.771Z,4.76
2024-02-05T05:12:52.403Z,4.78
2024-02-05T05:13:54.430Z,4.83
2024-02-05T05:14:56.455Z,4.63
2024-02-05T05:16:02.376Z,4.63
2024-02-05T05:17:04.689Z,4.73
2024-02-05T05:18:07.104Z,4.73
2024-02-05T05:19:09.331Z,4.90
2024-02-05T05:20:13.063Z,4.91
2024-02-05T05:21:15.215Z,4.91
2024-02-05T05:22:17.235Z,4.87
2024-02-05T05:23:19.310Z,4.88
2024-02-05T05:24:21.242Z,4.84
2024-02-05T05:25:25.428Z,4.68
2024-02-05T05:26:27.839Z,4.68
2024-02-05T05:27:29.830Z,4.63
2024-02-05T05:28:31.880Z,4.92
2024-02-05T05:29:33.957Z,5.00
2024-02-05T05:30:38.256Z,5.07
2024-02-05T05:31:40.353Z,4.92
2024-02-05T05:32:42.481Z,4.98
2024-02-05T05:33:45.832Z,4.93
2024-02-05T05:34:48.031Z,4.63
2024-02-05T05:35:50.712Z,4.92
2024-02-05T05:36:53.165Z,4.51
2024-02-05T05:37:55.378Z,4.99
2024-02-05T05:38:57.470Z,4.51
2024-02-05T05:39:59.568Z,4.64
2024-02-05T05:41:02.587Z,4.78
2024-02-05T05:42:04.897Z,4.50
2024-02-05T05:43:08.188Z,4.64
2024-02-05T05:44:10.291Z,4.58
2024-02-05T05:45:12.212Z,4.45
2024-02-05T05:46:15.268Z,4.47
2024-02-05T05:47:17.584Z,4.55
2024-02-05T05:48:21.593Z,4.78
2024-02-05T05:49:23.784Z,4.27
2024-02-05T05:50:26.147Z,4.42
2024-02-05T05:51:28.268Z,4.63
2024-02-05T05:52:30.752Z,4.59
2024-02-05T05:53:32.823Z,4.70
2024-02-05T05:54:35.676Z,4.74
2024-02-05T05:55:40.308Z,4.11
2024-02-05T05:56:43.451Z,4.44
2024-02-05T05:57:45.796Z,4.03
2024-02-05T05:58:48.453Z,4.26
2024-02-05T05:59:50.367Z,4.40
2024-02-05T06:00:52.814Z,4.69
2024-02-05T06:01:55.876Z,4.66
2024-02-05T06:02:58.443Z,4.90
2024-02-05T06:04:00.405Z,4.81
2024-02-05T06:05:02.518Z,4.51
2024-02-05T06:06:05.288Z,4.48
2024-02-05T06:07:08.877Z,4.70
2024-02-05T06:08:11.154Z,4.25
2024-02-05T06:09:13.564Z,4.45
2024-02-05T06:10:15.981Z,4.45
2024-02-05T06:11:18.086Z,4.64
2024-02-05T06:12:20.653Z,4.84
2024-02-05T06:13:22.679Z,4.76
2024-02-05T06:14:24.841Z,4.39
2024-02-05T06:15:27.496Z,4.73
2024-02-05T06:16:29.811Z,4.86
2024-02-05T06:17:32.101Z,4.87
2024-02-05T06:18:34.134Z,4.98
2024-02-05T06:19:36.452Z,4.62
2024-02-05T06:20:39.816Z,4.89
2024-02-05T06:21:42.011Z,4.81
2024-02-05T06:22:44.806Z,4.48
2024-02-05T06:23:46.895Z,4.88
2024-02-05T06:24:49.859Z,4.67
2024-02-05T06:25:52.602Z,4.93
2024-02-05T06:26:54.599Z,4.63
2024-02-05T06:27:57.586Z,4.89
2024-02-05T06:28:59.609Z,5.07
2024-02-05T06:30:03.026Z,4.63
2024-02-05T06:31:05.547Z,4.91
2024-02-05T06:32:07.503Z,4.54
2024-02-05T06:33:09.517Z,4.80
2024-02-05T06:34:11.766Z,4.76
2024-02-05T06:35:14.141Z,4.88
2024-02-05T06:36:16.326Z,4.98
2024-02-05T06:37:19.433Z,4.95
2024-02-05T06:38:21.518Z,4.88
2024-02-05T06:39:23.564Z,4.82
2024-02-05T06:40:26.068Z,4.98
2024-02-05T06:41:28.372Z,4.49
2024-02-05T06:42:30.292Z,4.67
2024-02-05T06:43:38.276Z,4.88
2024-02-05T06:44:41.568Z,5.11
2024-02-05T06:45:44.032Z,4.70
2024-02-05T06:46:48.323Z,4.92
2024-02-05T06:47:52.185Z,4.83
2024-02-05T06:48:54.533Z,4.80
2024-02-05T06:49:57.017Z,4.87
2024-02-05T06:50:59.344Z,5.09
2024-02-05T06:52:02.416Z,5.12
2024-02-05T06:53:05.608Z,5.11
2024-02-05T06:54:07.726Z,5.01
2024-02-05T06:55:10.808Z,5.05
2024-02-05T06:56:13.157Z,4.93
2024-02-05T06:57:15.186Z,4.97
2024-02-05T06:58:17.123Z,4.89
2024-02-05T06:59:19.078Z,4.89
2024-02-05T07:00:21.999Z,4.87
2024-02-05T07:01:24.065Z,4.86
2024-02-05T07:02:26.046Z,4.90
2024-02-05T07:03:29.134Z,5.05
2024-02-05T07:04:31.341Z,5.11
2024-02-05T07:05:34.684Z,5.29
2024-02-05T07:06:39.476Z,5.14
2024-02-05T07:07:41.678Z,4.97
2024-02-05T07:08:44.491Z,5.07
2024-02-05T07:09:46.752Z,4.70
2024-02-05T07:10:48.982Z,4.71
2024-02-05T07:11:50.857Z,4.89
2024-02-05T07:12:52.786Z,4.97
2024-02-05T07:13:54.876Z,5.04
2024-02-05T07:14:59.810Z,4.68
2024-02-05T07:16:01.899Z,4.59
2024-02-05T07:17:04.881Z,4.66
2024-02-05T07:18:07.351Z,4.64
2024-02-05T07:19:12.777Z,4.76
2024-02-05T07:20:17.907Z,4.90
2024-02-05T07:21:19.897Z,4.82
2024-02-05T07:22:21.821Z,4.95
2024-02-05T07:23:23.989Z,4.83
2024-02-05T07:24:26.789Z,4.52
2024-02-05T07:25:29.296Z,4.45
2024-02-05T07:26:34.153Z,4.61
2024-02-05T07:27:36.107Z,4.64
2024-02-05T07:28:38.191Z,4.55
2024-02-05T07:29:40.247Z,4.66
2024-02-05T07:30:42.260Z,4.29
2024-02-05T07:31:44.480Z,4.62
2024-02-05T07:32:48.508Z,4.78
2024-02-05T07:33:50.906Z,4.59
2024-02-05T07:34:53.158Z,4.67
2024-02-05T07:35:55.264Z,4.59
2024-02-05T07:36:57.386Z,4.60
2024-02-05T07:37:59.882Z,4.85
2024-02-05T07:39:02.418Z,4.95
2024-02-05T07:40:07.570Z,4.77
2024-02-05T07:41:11.424Z,4.61
2024-02-05T07:42:14.425Z,4.76
2024-02-05T07:43:16.746Z,4.24
2024-02-05T07:44:20.450Z,4.32
2024-02-05T07:45:24.424Z,4.37
2024-02-05T07:46:26.560Z,4.35
2024-02-05T07:47:29.127Z,4.58
2024-02-05T07:48:31.431Z,4.19
2024-02-05T07:49:34.265Z,4.34
2024-02-05T07:50:36.612Z,4.46
2024-02-05T07:51:44.299Z,4.52
2024-02-05T07:52:47.999Z,4.53
2024-02-05T07:53:49.968Z,4.43
2024-02-05T07:54:52.251Z,4.25
2024-02-05T07:55:57.208Z,4.54
2024-02-05T07:56:59.502Z,4.20
2024-02-05T07:58:01.519Z,3.72
2024-02-05T08:00:16.256Z,3.51
2024-02-05T08:01:19.434Z,3.53
2024-02-05T08:02:21.448Z,3.47
2024-02-05T08:03:23.784Z,3.91
2024-02-05T08:04:26.162Z,3.73
2024-02-05T08:05:30.219Z,3.40
2024-02-05T08:06:33.337Z,3.59
2024-02-05T08:07:35.601Z,3.31
2024-02-05T08:08:37.747Z,3.41
2024-02-05T08:09:39.908Z,3.44
2024-02-05T08:10:43.031Z,3.49
2024-02-05T08:11:47.606Z,3.66
2024-02-05T08:12:50.402Z,3.25
2024-02-05T08:13:55.684Z,3.56
2024-02-05T08:14:58.687Z,3.18
2024-02-05T08:16:02.092Z,3.25
2024-02-05T08:17:08.352Z,3.61
2024-02-05T08:18:08.966Z,3.23
2024-02-05T08:19:11.484Z,2.90
2024-02-05T08:20:15.688Z,2.96
2024-02-05T08:21:20.198Z,3.09
2024-02-05T08:22:25.587Z,3.18
2024-02-05T08:23:27.680Z,3.10
2024-02-05T08:24:29.716Z,3.02
2024-02-05T08:25:32.439Z,2.84
2024-02-05T08:26:37.569Z,2.94
2024-02-05T08:27:39.741Z,3.10
2024-02-05T08:28:41.804Z,3.16
2024-02-05T08:29:44.885Z,3.31
2024-02-05T08:30:47.808Z,3.54
2024-02-05T08:31:50.083Z,3.50
2024-02-05T08:32:56.517Z,3.58
2024-02-05T08:34:02.625Z,3.46
2024-02-05T08:35:09.371Z,3.06
2024-02-05T08:36:11.576Z,3.09
2024-02-05T08:37:13.689Z,3.62
2024-02-05T08:38:15.972Z,3.32
2024-02-05T08:39:18.008Z,3.14
2024-02-05T08:40:23.253Z,3.50
2024-02-05T08:41:25.318Z,3.57
2024-02-05T08:42:32.649Z,3.27
2024-02-05T08:43:31.267Z,3.18
2024-02-05T08:44:33.663Z,3.75
2024-02-05T08:45:35.680Z,3.17
2024-02-05T08:46:39.153Z,3.38
2024-02-05T08:47:42.321Z,3.02
2024-02-05T08:48:44.891Z,3.28
2024-02-05T08:49:49.392Z,3.24
2024-02-05T08:50:52.724Z,3.61
2024-02-05T08:51:54.792Z,3.12
2024-02-05T08:52:58.756Z,3.22
2024-02-05T08:54:02.050Z,3.31
2024-02-05T08:55:05.929Z,3.54
2024-02-05T08:56:08.327Z,3.53
2024-02-05T08:57:11.544Z,3.76
2024-02-05T08:58:14.966Z,3.86
2024-02-05T08:59:19.472Z,3.73
2024-02-05T09:00:23.724Z,3.36
2024-02-05T09:01:27.690Z,3.21
2024-02-05T09:02:30.498Z,3.38
2024-02-05T09:03:33.016Z,3.80
2024-02-05T09:04:35.905Z,3.69
2024-02-05T09:05:44.034Z,3.99
2024-02-05T09:06:42.964Z,4.19
2024-02-05T09:07:45.450Z,3.82
2024-02-05T09:08:47.745Z,3.36
2024-02-05T09:09:49.667Z,3.40
2024-02-05T09:10:53.173Z,3.53
2024-02-05T09:12:05.102Z,3.69
2024-02-05T09:13:00.876Z,3.88
2024-02-05T09:14:02.845Z,4.04
2024-02-05T09:15:08.167Z,3.83
2024-02-05T09:16:10.896Z,4.04
2024-02-05T09:17:15.080Z,3.77
2024-02-05T09:18:17.078Z,4.19
2024-02-05T09:19:19.788Z,4.39
2024-02-05T09:20:24.235Z,4.18
2024-02-05T09:21:26.153Z,3.69
2024-02-05T09:22:28.525Z,3.97
2024-02-05T09:23:30.935Z,3.91
2024-02-05T09:24:32.906Z,3.88
2024-02-05T09:25:35.802Z,4.22
2024-02-05T09:26:40.024Z,3.91
2024-02-05T09:27:43.180Z,3.83
2024-02-05T09:28:45.237Z,4.02
2024-02-05T09:29:49.765Z,4.26
2024-02-05T09:31:01.999Z,4.46
2024-02-05T09:31:58.123Z,4.22
2024-02-05T09:33:00.235Z,4.22
2024-02-05T09:34:02.399Z,3.91
2024-02-05T09:35:05.885Z,3.96
2024-02-05T09:36:10.577Z,3.77
2024-02-05T09:37:12.709Z,4.09
2024-02-05T09:38:14.763Z,4.11
2024-02-05T09:39:18.892Z,3.98
2024-02-05T09:40:21.300Z,4.16
2024-02-05T09:41:27.061Z,3.83
2024-02-05T09:42:30.337Z,3.71
2024-02-05T09:43:33.363Z,3.71
2024-02-05T09:44:38.066Z,4.17
2024-02-05T09:45:45.217Z,4.12
2024-02-05T09:46:50.604Z,4.10
2024-02-05T09:47:55.891Z,3.60
2024-02-05T09:49:01.146Z,4.05
2024-02-05T09:50:06.673Z,4.45
2024-02-05T09:51:12.263Z,4.46
2024-02-05T09:52:15.850Z,4.06
2024-02-05T09:53:17.899Z,3.89
2024-02-05T09:54:24.260Z,4.22
2024-02-05T09:55:29.287Z,4.38
2024-02-05T09:56:36.044Z,4.11
2024-02-05T09:57:41.274Z,4.50
2024-02-05T09:58:43.636Z,4.38
2024-02-05T09:59:46.442Z,4.14
2024-02-05T10:00:49.657Z,4.49
2024-02-05T10:01:54.991Z,4.21
2024-02-05T10:02:59.455Z,4.12
2024-02-05T10:04:02.686Z,4.54
2024-02-05T10:05:10.070Z,4.68
2024-02-05T10:06:16.284Z,4.61
2024-02-05T10:07:20.438Z,4.65
2024-02-05T10:08:26.420Z,4.64
2024-02-05T10:09:31.262Z,4.70
2024-02-05T10:10:36.140Z,4.35
2024-02-05T10:11:45.132Z,4.64
2024-02-05T10:12:51.948Z,4.74
2024-02-05T10:13:56.953Z,4.42
2024-02-05T10:15:02.657Z,4.40
2024-02-05T10:16:10.012Z,4.49
2024-02-05T10:17:15.769Z,4.15
2024-02-05T10:18:19.005Z,4.16
2024-02-05T10:19:24.159Z,4.29
2024-02-05T10:20:33.957Z,4.29
2024-02-05T10:21:38.355Z,4.37
2024-02-05T10:22:49.751Z,4.22
2024-02-05T10:23:55.280Z,4.08
2024-02-05T10:24:59.601Z,4.32
2024-02-05T10:26:03.560Z,4.25
2024-02-05T10:27:05.717Z,4.37
2024-02-05T10:28:09.117Z,4.37
2024-02-05T10:29:11.687Z,4.42
2024-02-05T10:30:19.506Z,4.37
2024-02-05T10:31:22.014Z,3.87
2024-02-05T10:32:24.203Z,3.87
2024-02-05T10:33:26.755Z,4.16
2024-02-05T10:34:31.203Z,4.50
2024-02-05T10:35:36.989Z,4.70
2024-02-05T10:36:41.300Z,4.91
2024-02-05T10:37:44.670Z,4.13
2024-02-05T10:38:46.754Z,4.33
2024-02-05T10:39:50.303Z,4.33
2024-02-05T10:40:52.566Z,4.39
2024-02-05T10:41:54.914Z,4.47
2024-02-05T10:42:58.813Z,4.54
2024-02-05T10:44:02.114Z,4.32
2024-02-05T10:45:06.111Z,4.43
2024-02-05T10:46:08.535Z,4.47
2024-02-05T10:47:12.048Z,4.53
2024-02-05T10:48:15.248Z,4.69
2024-02-05T10:49:19.502Z,4.41
2024-02-05T10:50:23.867Z,4.66
2024-02-05T10:51:26.923Z,4.40
2024-02-05T10:52:31.572Z,4.62
2024-02-05T10:53:38.024Z,4.97
2024-02-05T10:54:42.833Z,4.86
2024-02-05T10:55:45.664Z,4.37
2024-02-05T10:56:50.833Z,4.78
2024-02-05T10:57:56.084Z,4.97
2024-02-05T10:59:01.009Z,5.07
2024-02-05T11:00:03.945Z,4.99
2024-02-05T11:01:08.360Z,4.88
2024-02-05T11:02:32.593Z,4.73
2024-02-05T11:03:36.873Z,4.44
2024-02-05T11:04:42.407Z,4.41
2024-02-05T11:05:48.302Z,4.70
2024-02-05T11:06:54.647Z,4.26
2024-02-05T11:08:00.485Z,4.61
2024-02-05T11:09:07.365Z,4.61
2024-02-05T11:10:12.033Z,4.31
2024-02-05T11:11:15.815Z,4.45
2024-02-05T11:12:23.320Z,4.20
2024-02-05T11:14:42.634Z,4.67
2024-02-05T11:15:47.662Z,4.41
2024-02-05T11:16:50.534Z,4.84
2024-02-05T11:17:54.626Z,4.96
2024-02-05T11:19:01.317Z,4.51
2024-02-05T11:20:10.957Z,4.79
2024-02-05T11:21:17.893Z,4.60
2024-02-05T11:22:23.553Z,4.52
2024-02-05T11:23:30.529Z,4.56
2024-02-05T11:24:34.733Z,4.38
2024-02-05T11:25:37.264Z,4.81
2024-02-05T11:26:40.860Z,4.80
2024-02-05T11:27:45.414Z,4.81
2024-02-05T11:28:52.521Z,4.40
2024-02-05T11:29:55.454Z,4.52
2024-02-05T11:31:02.641Z,4.52
2024-02-05T11:32:05.547Z,4.45
2024-02-05T11:33:07.782Z,4.34
2024-02-05T11:34:09.923Z,4.36
2024-02-05T11:35:12.947Z,4.29
2024-02-05T11:36:15.382Z,4.33
2024-02-05T11:37:17.676Z,4.57
2024-02-05T11:38:21.381Z,4.69
2024-02-05T11:39:27.774Z,4.88
2024-02-05T11:40:34.464Z,4.99
2024-02-05T11:41:39.189Z,4.97
2024-02-05T11:42:41.131Z,5.03
2024-02-05T11:43:43.029Z,5.15
2024-02-05T11:44:48.682Z,4.62
2024-02-05T11:45:54.894Z,4.89
2024-02-05T11:46:57.813Z,5.03
2024-02-05T11:48:08.297Z,5.03
2024-02-05T11:49:13.275Z,5.01
2024-02-05T11:50:18.513Z,5.09
2024-02-05T11:51:34.503Z,5.04
2024-02-05T11:52:36.992Z,4.86
2024-02-05T11:53:43.101Z,5.17
2024-02-05T11:54:45.323Z,5.14
2024-02-05T11:55:48.388Z,5.17
2024-02-05T11:56:50.650Z,4.93
2024-02-05T11:57:52.744Z,4.80
2024-02-05T11:59:00.551Z,4.92
2024-02-05T12:00:07.282Z,5.07
2024-02-05T12:01:12.031Z,5.16
2024-02-05T12:02:15.583Z,4.91
2024-02-05T12:03:20.811Z,5.17
2024-02-05T12:04:26.076Z,5.08
2024-02-05T12:05:29.377Z,5.18
2024-02-05T12:06:32.213Z,4.97
2024-02-05T12:07:36.997Z,5.10
2024-02-05T12:08:41.144Z,4.85
2024-02-05T12:09:43.150Z,4.71
2024-02-05T12:10:45.167Z,4.90
2024-02-05T12:11:47.879Z,4.89
2024-02-05T12:12:52.675Z,4.73
2024-02-05T12:14:01.852Z,4.87
2024-02-05T12:15:27.781Z,5.07
2024-02-05T12:16:29.831Z,5.16
2024-02-05T12:17:32.981Z,4.88
2024-02-05T12:18:40.511Z,5.39
2024-02-05T12:19:42.744Z,5.48
2024-02-05T12:20:45.782Z,5.36
2024-02-05T12:21:48.602Z,5.57
2024-02-05T12:22:53.644Z,5.48
2024-02-05T12:23:55.645Z,5.55
2024-02-05T12:24:58.237Z,5.56
2024-02-05T12:26:01.937Z,5.66
2024-02-05T12:27:07.576Z,5.62
2024-02-05T12:28:13.088Z,5.71
2024-02-05T12:29:25.527Z,5.43
2024-02-05T12:30:27.888Z,5.41
2024-02-05T12:31:30.068Z,5.54
2024-02-05T12:32:42.361Z,5.36
2024-02-05T12:33:38.165Z,5.20
2024-02-05T12:34:41.652Z,5.16
2024-02-05T12:35:43.790Z,5.29
2024-02-05T12:36:50.554Z,4.95
2024-02-05T12:37:53.948Z,4.58
2024-02-05T12:38:57.800Z,5.01
2024-02-05T12:39:59.968Z,4.67
2024-02-05T12:41:04.305Z,4.65
2024-02-05T12:42:07.601Z,4.29
2024-02-05T12:43:09.714Z,4.59
2024-02-05T12:44:19.669Z,4.64
2024-02-05T12:45:17.126Z,4.83
2024-02-05T12:46:20.735Z,4.80
2024-02-05T12:47:25.637Z,5.00
2024-02-05T12:48:28.779Z,4.77
2024-02-05T12:49:31.637Z,4.75
2024-02-05T12:50:34.394Z,4.78
2024-02-05T12:51:37.226Z,4.83
2024-02-05T12:52:39.938Z,5.10
2024-02-05T12:53:42.091Z,4.87
2024-02-05T12:54:46.313Z,5.03
2024-02-05T12:55:50.691Z,4.90
2024-02-05T12:56:53.922Z,5.08
2024-02-05T12:57:55.880Z,4.85
2024-02-05T12:58:59.779Z,4.99
2024-02-05T13:00:03.536Z,5.18
2024-02-05T13:01:06.766Z,5.27
2024-02-05T13:02:11.510Z,5.16
2024-02-05T13:03:13.986Z,5.13
2024-02-05T13:04:18.086Z,5.14
2024-02-05T13:05:22.226Z,5.27
2024-02-05T13:06:27.733Z,5.35
2024-02-05T13:07:32.398Z,5.27
2024-02-05T13:08:34.982Z,5.15
2024-02-05T13:09:38.187Z,5.29
2024-02-05T13:10:46.335Z,5.34
2024-02-05T13:11:49.517Z,5.39
2024-02-05T13:12:53.308Z,5.39
2024-02-05T13:13:58.914Z,5.44
2024-02-05T13:15:00.928Z,5.45
2024-02-05T13:16:07.220Z,5.23
2024-02-05T13:17:12.199Z,5.31
2024-02-05T13:18:14.360Z,5.33
2024-02-05T13:19:18.728Z,5.46
2024-02-05T13:20:24.466Z,5.36
2024-02-05T13:21:27.209Z,5.28
2024-02-05T13:22:29.780Z,5.43
2024-02-05T13:23:32.037Z,5.40
2024-02-05T13:24:37.610Z,5.36
2024-02-05T13:25:45.921Z,5.62
2024-02-05T13:26:46.222Z,5.82
2024-02-05T13:27:50.506Z,5.76
2024-02-05T13:28:52.696Z,5.83
2024-02-05T13:29:57.912Z,5.69
2024-02-05T13:31:00.613Z,5.65
2024-02-05T13:32:06.644Z,5.76
2024-02-05T13:33:08.752Z,5.74
2024-02-05T13:34:14.164Z,5.61
2024-02-05T13:35:16.531Z,4.94
2024-02-05T13:36:20.043Z,5.66
2024-02-05T13:37:23.407Z,5.69
2024-02-05T13:38:25.480Z,5.82
2024-02-05T13:39:27.517Z,5.92
2024-02-05T13:40:29.805Z,5.46
2024-02-05T13:41:34.539Z,5.82
2024-02-05T13:42:37.268Z,5.93
2024-02-05T13:43:39.212Z,5.73
2024-02-05T13:44:42.595Z,5.65
2024-02-05T13:45:46.403Z,5.58
2024-02-05T13:46:51.125Z,5.77
2024-02-05T13:47:53.302Z,5.86
2024-02-05T13:48:55.380Z,5.88
2024-02-05T13:49:57.606Z,5.80
2024-02-05T13:51:01.615Z,5.70
2024-02-05T13:52:04.539Z,5.74
2024-02-05T13:53:08.599Z,5.53
2024-02-05T13:54:11.465Z,5.63
2024-02-05T13:55:15.079Z,5.63
2024-02-05T13:56:17.713Z,5.55
2024-02-05T13:57:21.165Z,5.54
2024-02-05T13:58:23.187Z,5.65
2024-02-05T13:59:25.398Z,5.89
2024-02-05T14:00:29.666Z,5.94
2024-02-05T14:01:31.899Z,5.74
2024-02-05T14:02:33.958Z,5.61
2024-02-05T14:03:36.104Z,5.65
2024-02-05T14:04:38.039Z,5.73
2024-02-05T14:05:41.525Z,5.64
2024-02-05T14:06:44.418Z,5.22
2024-02-05T14:07:46.729Z,3.23
2024-02-05T14:08:48.999Z,2.99
2024-02-05T14:09:53.067Z,2.00